createdAt,value
2022-12-05T00:01:54.190Z,80.37
2022-12-05T00:04:26.509Z,80.24
2022-12-05T00:06:58.709Z,80.27
2022-12-05T00:09:31.361Z,80.46
2022-12-05T00:12:03.482Z,80.11
2022-12-05T00:14:35.567Z,80.06
2022-12-05T00:17:07.704Z,80.22
2022-12-05T00:19:40.750Z,80.47
2022-12-05T00:22:12.942Z,80.15
2022-12-05T00:24:44.959Z,80.29
2022-12-05T00:27:17.025Z,80.05
2022-12-05T00:29:49.499Z,80.14
2022-12-05T00:32:21.644Z,79.94
2022-12-05T00:34:53.761Z,80.04
2022-12-05T00:37:26.133Z,80.02
2022-12-05T00:39:58.487Z,80.14
2022-12-05T00:42:30.777Z,80.27
2022-12-05T00:45:03.022Z,80.23
2022-12-05T00:47:37.724Z,80.19
2022-12-05T00:50:11.576Z,80.11
2022-12-05T00:52:43.777Z,80.34
2022-12-05T00:55:15.968Z,80.26
2022-12-05T00:57:48.105Z,80.08
2022-12-05T01:00:22.185Z,80.38
2022-12-05T01:02:54.346Z,80.12
2022-12-05T01:05:26.510Z,80.13
2022-12-05T01:07:58.772Z,80.35
2022-12-05T01:10:31.025Z,80.16
2022-12-05T01:13:03.196Z,80.24
2022-12-05T01:15:39.100Z,80.38
2022-12-05T01:18:11.575Z,80.19
2022-12-05T01:20:44.384Z,80.03
2022-12-05T01:23:17.017Z,80.07
2022-12-05T01:25:51.411Z,80.07
2022-12-05T01:28:23.957Z,80.20
2022-12-05T01:30:56.077Z,80.35
2022-12-05T01:33:28.168Z,80.28
2022-12-05T01:36:00.312Z,80.11
2022-12-05T01:38:32.609Z,80.32
2022-12-05T01:41:07.643Z,80.18
2022-12-05T01:44:01.650Z,80.27
2022-12-05T01:46:36.222Z,80.25
2022-12-05T01:49:12.078Z,80.16
2022-12-05T01:51:47.168Z,80.20
2022-12-05T01:54:20.843Z,79.96
2022-12-05T01:56:58.335Z,80.13
2022-12-05T01:59:35.420Z,80.12
2022-12-05T02:02:08.584Z,80.05
2022-12-05T02:04:47.512Z,79.97
2022-12-05T02:07:20.579Z,79.98
2022-12-05T02:09:53.666Z,80.16
2022-12-05T02:12:26.657Z,80.32
2022-12-05T02:15:13.544Z,80.15
2022-12-05T02:17:54.850Z,80.22
2022-12-05T02:20:39.844Z,80.20
2022-12-05T02:23:30.546Z,80.04
2022-12-05T02:26:40.220Z,80.38
2022-12-05T02:29:33.100Z,80.33
2022-12-05T02:32:12.204Z,80.27
2022-12-05T02:34:54.304Z,80.20
2022-12-05T02:37:33.030Z,80.07
2022-12-05T02:40:12.235Z,80.14
2022-12-05T02:42:52.520Z,80.16
2022-12-05T02:45:29.266Z,80.11
2022-12-05T02:48:02.719Z,80.16
2022-12-05T02:50:38.906Z,80.31
2022-12-05T02:53:14.430Z,80.16
2022-12-05T02:55:47.671Z,79.92
2022-12-05T02:58:24.093Z,80.32
2022-12-05T03:00:59.379Z,80.17
2022-12-05T03:03:34.320Z,80.26
2022-12-05T03:06:13.546Z,79.88
2022-12-05T03:08:50.374Z,79.84
2022-12-05T03:11:22.569Z,80.10
2022-12-05T03:13:57.473Z,80.02
2022-12-05T03:16:35.218Z,80.18
2022-12-05T03:19:13.935Z,80.18
2022-12-05T03:21:53.563Z,80.10
2022-12-05T03:24:25.836Z,80.09
2022-12-05T03:27:08.528Z,80.14
2022-12-05T03:29:47.772Z,80.19
2022-12-05T03:32:25.800Z,80.13
2022-12-05T03:35:09.760Z,80.09
2022-12-05T03:37:49.105Z,80.23
2022-12-05T03:40:28.893Z,79.86
2022-12-05T03:43:10.254Z,80.02
2022-12-05T03:45:49.403Z,80.01
2022-12-05T03:48:31.229Z,79.91
2022-12-05T03:51:06.110Z,80.31
2022-12-05T03:53:43.270Z,80.50
2022-12-05T03:56:21.379Z,80.04
2022-12-05T03:58:58.282Z,79.92
2022-12-05T04:01:32.326Z,79.84
2022-12-05T04:04:09.608Z,79.96
2022-12-05T04:06:46.844Z,80.02
2022-12-05T04:09:25.592Z,79.95
2022-12-05T04:12:02.910Z,80.08
2022-12-05T04:14:40.820Z,79.84
2022-12-05T04:17:19.521Z,79.91
2022-12-05T04:20:15.148Z,80.18
2022-12-05T04:22:47.855Z,79.91
2022-12-05T04:25:36.367Z,80.03
2022-12-05T04:28:22.210Z,80.05
2022-12-05T04:31:04.228Z,80.16
2022-12-05T04:33:43.454Z,80.18
2022-12-05T04:36:21.623Z,80.02
2022-12-05T04:38:56.492Z,79.99
2022-12-05T04:41:32.782Z,80.05
2022-12-05T04:44:09.867Z,80.14
2022-12-05T04:46:45.881Z,80.14
2022-12-05T04:49:22.933Z,80.14
2022-12-05T04:51:58.763Z,80.17
2022-12-05T04:54:33.438Z,79.90
2022-12-05T04:57:14.112Z,79.91
2022-12-05T04:59:46.606Z,80.04
2022-12-05T05:02:25.861Z,80.13
2022-12-05T05:05:02.668Z,79.95
2022-12-05T05:07:43.560Z,80.16
2022-12-05T05:10:20.292Z,80.10
2022-12-05T05:12:52.433Z,80.09
2022-12-05T05:15:24.635Z,80.08
2022-12-05T05:17:56.977Z,79.91
2022-12-05T05:20:29.685Z,79.96
2022-12-05T05:23:01.926Z,80.04
2022-12-05T05:25:34.503Z,80.13
2022-12-05T05:28:07.112Z,80.18
2022-12-05T05:30:39.276Z,80.07
2022-12-05T05:33:11.394Z,80.16
2022-12-05T05:35:43.817Z,80.14
2022-12-05T05:38:15.909Z,80.05
2022-12-05T05:40:48.078Z,80.05
2022-12-05T05:43:20.171Z,80.15
2022-12-05T05:45:52.263Z,79.98
2022-12-05T05:48:24.453Z,80.28
2022-12-05T05:50:56.669Z,80.14
2022-12-05T05:53:28.871Z,80.13
2022-12-05T05:56:05.693Z,80.12
2022-12-05T05:58:38.680Z,79.96
2022-12-05T06:01:12.770Z,80.15
2022-12-05T06:03:45.039Z,80.00
2022-12-05T06:06:17.489Z,80.05
2022-12-05T06:08:50.582Z,80.03
2022-12-05T06:11:26.366Z,80.02
2022-12-05T06:14:02.230Z,79.97
2022-12-05T06:16:33.495Z,80.08
2022-12-05T06:19:05.663Z,79.95
2022-12-05T06:21:37.718Z,79.93
2022-12-05T06:24:10.828Z,80.07
2022-12-05T06:26:43.749Z,79.85
2022-12-05T06:29:15.836Z,79.80
2022-12-05T06:31:48.367Z,79.87
2022-12-05T06:34:20.812Z,79.96
2022-12-05T06:36:52.955Z,79.92
2022-12-05T06:39:25.251Z,79.80
2022-12-05T06:41:57.418Z,79.98
2022-12-05T06:44:29.539Z,80.06
2022-12-05T06:47:01.758Z,80.06
2022-12-05T06:49:37.812Z,79.89
2022-12-05T06:52:10.492Z,80.18
2022-12-05T06:54:42.715Z,79.98
2022-12-05T06:57:15.242Z,80.15
2022-12-05T06:59:47.359Z,80.15
2022-12-05T07:02:19.557Z,80.37
2022-12-05T07:04:51.696Z,80.15
2022-12-05T07:07:23.777Z,80.17
2022-12-05T07:09:56.050Z,80.04
2022-12-05T07:12:28.532Z,80.16
2022-12-05T07:15:00.598Z,80.00
2022-12-05T07:17:36.636Z,80.13
2022-12-05T07:20:12.772Z,80.12
2022-12-05T07:22:45.142Z,80.11
2022-12-05T07:25:17.438Z,80.15
2022-12-05T07:27:49.508Z,80.11
2022-12-05T07:30:21.673Z,79.97
2022-12-05T07:32:54.023Z,79.97
2022-12-05T07:35:26.136Z,79.94
2022-12-05T07:37:58.920Z,79.82
2022-12-05T07:40:31.470Z,80.02
2022-12-05T07:43:03.588Z,80.03
2022-12-05T07:45:36.701Z,80.08
2022-12-05T07:48:09.228Z,79.90
2022-12-05T07:50:42.320Z,79.90
2022-12-05T07:53:14.385Z,79.93
2022-12-05T07:55:46.477Z,80.09
2022-12-05T07:58:18.624Z,80.10
2022-12-05T08:00:50.765Z,80.18
2022-12-05T08:03:22.823Z,79.84
2022-12-05T08:05:54.971Z,79.83
2022-12-05T08:08:27.139Z,79.80
2022-12-05T08:11:03.536Z,79.81
2022-12-05T08:13:36.315Z,79.89
2022-12-05T08:16:12.103Z,79.96
2022-12-05T08:18:46.525Z,79.77
2022-12-05T08:21:20.703Z,79.67
2022-12-05T08:23:53.241Z,79.69
2022-12-05T08:26:27.845Z,79.81
2022-12-05T08:29:02.124Z,80.01
2022-12-05T08:31:36.339Z,79.96
2022-12-05T08:34:08.558Z,79.63
2022-12-05T08:36:41.517Z,79.55
2022-12-05T08:39:17.298Z,79.76
2022-12-05T08:41:50.721Z,79.90
2022-12-05T08:44:22.840Z,79.90
2022-12-05T08:46:55.032Z,79.86
2022-12-05T08:49:28.378Z,79.64
2022-12-05T08:52:00.624Z,79.66
2022-12-05T08:54:32.919Z,79.68
2022-12-05T08:57:05.143Z,79.60
2022-12-05T08:59:37.359Z,79.45
2022-12-05T09:02:09.610Z,79.76
2022-12-05T09:04:42.162Z,79.77
2022-12-05T09:07:14.274Z,79.77
2022-12-05T09:09:46.640Z,79.56
2022-12-05T09:12:18.993Z,79.66
2022-12-05T09:14:51.650Z,79.56
2022-12-05T09:17:24.636Z,79.64
2022-12-05T09:19:56.828Z,79.56
2022-12-05T09:22:28.947Z,79.66
2022-12-05T09:25:01.755Z,79.72
2022-12-05T09:27:33.870Z,79.61
2022-12-05T09:30:09.452Z,79.74
2022-12-05T09:32:42.845Z,80.00
2022-12-05T09:35:15.036Z,79.68
2022-12-05T09:37:47.203Z,79.73
2022-12-05T09:40:21.139Z,79.72
2022-12-05T09:43:05.593Z,79.51
2022-12-05T09:45:41.347Z,79.68
2022-12-05T09:48:17.431Z,79.75
2022-12-05T09:50:55.691Z,79.77
2022-12-05T09:53:31.830Z,79.61
2022-12-05T09:56:13.673Z,79.53
2022-12-05T09:58:48.606Z,79.54
2022-12-05T10:01:42.063Z,79.90
2022-12-05T10:04:28.710Z,79.62
2022-12-05T10:07:08.864Z,79.50
2022-12-05T10:09:55.041Z,79.37
2022-12-05T10:12:44.274Z,79.48
2022-12-05T10:15:21.437Z,79.57
2022-12-05T10:18:00.543Z,79.41
2022-12-05T10:20:37.603Z,79.59
2022-12-05T10:23:34.709Z,79.72
2022-12-05T10:26:14.552Z,79.55
2022-12-05T10:28:53.456Z,79.73
2022-12-05T10:31:30.730Z,79.68
2022-12-05T10:34:11.664Z,79.37
2022-12-05T10:36:45.653Z,79.58
2022-12-05T10:39:17.721Z,79.56
2022-12-05T10:41:49.938Z,79.63
2022-12-05T10:44:22.385Z,79.32
2022-12-05T10:46:54.569Z,79.34
2022-12-05T10:49:27.952Z,79.38
2022-12-05T10:52:01.784Z,79.54
2022-12-05T10:54:39.637Z,79.65
2022-12-05T10:57:24.604Z,79.67
2022-12-05T10:59:57.589Z,79.25
2022-12-05T11:02:33.419Z,79.34
2022-12-05T11:05:04.770Z,79.47
2022-12-05T11:07:48.356Z,79.40
2022-12-05T11:10:27.411Z,79.57
2022-12-05T11:13:01.062Z,79.31
2022-12-05T11:15:33.972Z,79.52
2022-12-05T11:21:14.878Z,79.57
2022-12-05T11:23:47.090Z,80.00
2022-12-05T11:26:35.794Z,79.88
2022-12-05T11:29:32.077Z,79.74
2022-12-05T11:32:05.453Z,79.65
2022-12-05T11:34:43.864Z,79.54
2022-12-05T11:37:21.589Z,79.63
2022-12-05T11:39:54.389Z,79.60
2022-12-05T11:42:37.600Z,79.72
2022-12-05T11:45:31.248Z,79.51
2022-12-05T11:48:18.771Z,79.60
2022-12-05T11:51:03.126Z,79.28
2022-12-05T11:53:52.575Z,78.88
2022-12-05T11:56:38.471Z,78.84
2022-12-05T11:59:30.908Z,78.78
2022-12-05T12:02:16.456Z,78.94
2022-12-05T12:04:53.907Z,79.02
2022-12-05T12:07:37.987Z,79.33
2022-12-05T12:10:19.747Z,79.50
2022-12-05T12:13:06.635Z,79.38
2022-12-05T12:15:52.424Z,79.13
2022-12-05T12:18:49.453Z,79.29
2022-12-05T12:21:26.866Z,79.49
2022-12-05T12:24:12.782Z,79.47
2022-12-05T12:26:58.299Z,79.24
2022-12-05T12:29:44.510Z,78.83
2022-12-05T12:32:31.582Z,79.03
2022-12-05T12:35:19.081Z,79.07
2022-12-05T12:38:04.690Z,79.00
2022-12-05T12:40:47.662Z,78.79
2022-12-05T12:43:53.249Z,79.13
2022-12-05T12:46:37.862Z,79.36
2022-12-05T12:49:31.597Z,79.28
2022-12-05T12:52:06.606Z,79.47
2022-12-05T12:55:03.564Z,79.29
2022-12-05T12:57:56.152Z,79.29
2022-12-05T13:00:38.860Z,79.39
2022-12-05T13:03:18.255Z,79.22
2022-12-05T13:05:55.233Z,79.08
2022-12-05T13:08:35.188Z,79.14
2022-12-05T13:11:12.684Z,79.01
2022-12-05T13:13:48.760Z,79.20
2022-12-05T13:16:28.086Z,78.99
2022-12-05T13:19:01.448Z,79.22
2022-12-05T13:21:34.258Z,79.37
2022-12-05T13:24:08.524Z,79.42
2022-12-05T13:26:49.681Z,79.54
2022-12-05T13:29:33.826Z,79.69
2022-12-05T13:32:07.175Z,79.59
2022-12-05T13:34:51.681Z,79.72
2022-12-05T13:37:44.968Z,79.57
2022-12-05T13:40:47.911Z,79.58
2022-12-05T13:43:23.258Z,79.13
2022-12-05T13:46:14.187Z,79.08
2022-12-05T13:48:50.116Z,79.30
2022-12-05T13:51:32.088Z,79.27
2022-12-05T13:54:12.556Z,79.28
2022-12-05T13:56:54.270Z,79.50
2022-12-05T14:00:06.045Z,79.43
2022-12-05T14:02:55.075Z,79.79
2022-12-05T14:05:41.841Z,79.47
2022-12-05T14:08:47.902Z,79.54
2022-12-05T14:11:19.845Z,79.70
2022-12-05T14:13:51.936Z,79.65
2022-12-05T14:16:45.222Z,79.52
2022-12-05T14:19:48.826Z,79.23
2022-12-05T14:22:43.728Z,79.00
2022-12-05T14:25:30.769Z,79.16
2022-12-05T14:28:16.940Z,78.97
2022-12-05T14:31:03.110Z,79.05
2022-12-05T14:33:35.619Z,79.34
2022-12-05T14:36:17.126Z,79.51
2022-12-05T14:38:49.140Z,79.63
2022-12-05T14:41:36.345Z,79.58
2022-12-05T14:44:20.748Z,79.70
2022-12-05T14:46:52.722Z,79.63
2022-12-05T14:50:13.897Z,79.51
2022-12-05T14:52:47.218Z,79.50
2022-12-05T14:55:25.078Z,79.31
2022-12-05T14:57:59.567Z,79.13
2022-12-05T15:00:31.889Z,79.07
2022-12-05T15:03:05.978Z,79.29
2022-12-05T15:05:40.233Z,79.37
2022-12-05T15:08:17.018Z,79.51
2022-12-05T15:10:52.722Z,79.78
2022-12-05T15:13:28.678Z,79.85
2022-12-05T15:16:07.185Z,79.97
2022-12-05T15:18:44.376Z,79.83
2022-12-05T15:21:27.787Z,79.93
2022-12-05T15:24:01.806Z,80.03
2022-12-05T15:26:49.157Z,79.91
2022-12-05T15:29:29.279Z,79.46
2022-12-05T15:32:03.444Z,79.37
2022-12-05T15:34:42.037Z,79.50
2022-12-05T15:37:18.200Z,79.63
2022-12-05T15:39:57.333Z,79.60
2022-12-05T15:42:32.271Z,79.45
2022-12-05T15:45:22.198Z,79.54
2022-12-05T15:47:56.925Z,79.74
2022-12-05T15:50:35.232Z,79.80
2022-12-05T15:53:14.729Z,79.85
2022-12-05T15:55:51.866Z,79.98
2022-12-05T15:58:28.588Z,79.94
2022-12-05T16:01:06.871Z,79.92
2022-12-05T16:03:46.646Z,79.35
2022-12-05T16:06:23.576Z,79.49
2022-12-05T16:08:56.717Z,79.50
2022-12-05T16:11:28.912Z,79.76
2022-12-05T16:14:04.420Z,79.67
2022-12-05T16:16:39.837Z,79.58
2022-12-05T16:19:22.420Z,79.78
2022-12-05T16:22:08.642Z,80.12
2022-12-05T16:24:44.670Z,80.13
2022-12-05T16:27:19.427Z,80.03
2022-12-05T16:30:11.127Z,80.32
2022-12-05T16:32:44.957Z,80.03
2022-12-05T16:35:33.896Z,79.97
2022-12-05T16:38:14.652Z,79.74
2022-12-05T16:40:56.971Z,79.73
2022-12-05T16:43:46.828Z,79.75
2022-12-05T16:46:56.094Z,79.72
2022-12-05T16:49:45.613Z,79.76
2022-12-05T16:52:19.015Z,79.77
2022-12-05T16:54:52.359Z,80.06
2022-12-05T16:57:24.577Z,80.21
2022-12-05T16:59:58.077Z,80.28
2022-12-05T17:02:30.037Z,80.33
2022-12-05T17:05:08.073Z,80.34
2022-12-05T17:07:40.018Z,80.38
2022-12-05T17:10:12.685Z,80.23
2022-12-05T17:12:47.772Z,80.17
2022-12-05T17:15:21.878Z,79.87
2022-12-05T17:17:54.034Z,79.75
2022-12-05T17:20:25.970Z,79.93
2022-12-05T17:22:57.887Z,80.04
2022-12-05T17:25:36.428Z,79.98
2022-12-05T17:28:08.364Z,80.05
2022-12-05T17:30:40.892Z,80.27
2022-12-05T17:33:15.209Z,80.50
2022-12-05T17:35:47.281Z,80.41
2022-12-05T17:38:19.263Z,80.48
2022-12-05T17:40:51.178Z,80.52
2022-12-05T17:43:25.487Z,80.37
2022-12-05T17:46:00.482Z,80.40
2022-12-05T17:48:32.449Z,80.40
2022-12-05T17:51:06.734Z,80.21
2022-12-05T17:53:39.060Z,80.24
2022-12-05T17:56:11.436Z,80.11
2022-12-05T17:58:43.464Z,80.02
2022-12-05T18:01:18.771Z,80.01
2022-12-05T18:03:51.571Z,80.02
2022-12-05T18:06:23.533Z,80.45
2022-12-05T18:08:55.625Z,80.77
2022-12-05T18:11:27.591Z,80.55
2022-12-05T18:14:00.204Z,80.70
2022-12-05T18:16:32.297Z,80.65
2022-12-05T18:19:04.272Z,80.73
2022-12-05T18:21:36.292Z,80.72
2022-12-05T18:24:09.249Z,80.67
2022-12-05T18:26:41.503Z,80.52
2022-12-05T18:29:13.560Z,80.28
2022-12-05T18:31:45.540Z,80.13
2022-12-05T18:34:17.919Z,80.08
2022-12-05T18:36:49.871Z,80.26
2022-12-05T18:39:21.927Z,80.44
2022-12-05T18:41:54.454Z,80.12
2022-12-05T18:44:26.596Z,80.37
2022-12-05T18:46:58.527Z,80.57
2022-12-05T18:49:30.807Z,80.80
2022-12-05T18:52:03.126Z,80.53
2022-12-05T18:54:35.216Z,80.86
2022-12-05T18:57:07.234Z,80.87
2022-12-05T18:59:39.246Z,80.94
2022-12-05T19:02:12.065Z,80.61
2022-12-05T19:04:44.480Z,80.26
2022-12-05T19:07:16.468Z,80.22
2022-12-05T19:09:49.020Z,80.19
2022-12-05T19:12:21.112Z,80.01
2022-12-05T19:14:53.080Z,80.38
2022-12-05T19:17:25.197Z,80.35
2022-12-05T19:19:58.746Z,80.47
2022-12-05T19:22:31.484Z,80.82
2022-12-05T19:25:03.616Z,80.99
2022-12-05T19:27:35.531Z,80.79
2022-12-05T19:30:10.889Z,81.01
2022-12-05T19:32:42.944Z,80.90
2022-12-05T19:35:15.386Z,81.08
2022-12-05T19:37:47.300Z,80.75
2022-12-05T19:40:19.468Z,80.28
2022-12-05T19:42:51.379Z,80.38
2022-12-05T19:45:23.342Z,80.48
2022-12-05T19:47:55.254Z,80.55
2022-12-05T19:50:28.627Z,80.64
2022-12-05T19:53:01.076Z,80.79
2022-12-05T19:55:33.064Z,80.86
2022-12-05T19:58:04.900Z,81.05
2022-12-05T20:00:36.814Z,80.93
2022-12-05T20:03:12.136Z,81.07
2022-12-05T20:05:44.408Z,81.15
2022-12-05T20:08:16.395Z,81.41
2022-12-05T20:10:50.020Z,81.32
2022-12-05T20:13:45.933Z,81.21
2022-12-05T20:16:17.161Z,80.85
2022-12-05T20:18:49.945Z,80.78
2022-12-05T20:21:23.434Z,81.05
2022-12-05T20:23:55.817Z,80.88
2022-12-05T20:26:29.650Z,81.18
2022-12-05T20:29:02.765Z,80.98
2022-12-05T20:31:36.776Z,81.23
2022-12-05T20:34:10.662Z,81.37
2022-12-05T20:36:43.136Z,81.46
2022-12-05T20:39:17.094Z,81.50
2022-12-05T20:41:50.167Z,81.40
2022-12-05T20:44:22.514Z,81.50
2022-12-05T20:46:54.829Z,81.27
2022-12-05T20:49:27.049Z,81.19
2022-12-05T20:51:58.961Z,81.27
2022-12-05T20:54:30.925Z,81.07
2022-12-05T20:57:03.297Z,81.18
2022-12-05T20:59:35.340Z,81.28
2022-12-05T21:02:07.784Z,81.24
2022-12-05T21:04:41.139Z,81.36
2022-12-05T21:07:13.049Z,81.64
2022-12-05T21:09:44.931Z,81.78
2022-12-05T21:12:16.870Z,81.55
2022-12-05T21:14:48.759Z,81.56
2022-12-05T21:17:20.695Z,81.78
2022-12-05T21:19:52.633Z,81.73
2022-12-05T21:22:24.697Z,81.45
2022-12-05T21:24:56.638Z,81.32
2022-12-05T21:27:28.752Z,81.21
2022-12-05T21:30:00.954Z,81.41
2022-12-05T21:32:33.242Z,81.22
2022-12-05T21:35:06.037Z,81.54
2022-12-05T21:37:38.680Z,81.41
2022-12-05T21:40:12.566Z,81.58
2022-12-05T21:42:44.988Z,81.75
2022-12-05T21:45:17.181Z,81.68
2022-12-05T21:47:49.118Z,82.04
2022-12-05T21:50:21.107Z,81.92
2022-12-05T21:52:53.097Z,82.09
2022-12-05T21:55:25.137Z,82.18
2022-12-05T21:57:57.666Z,82.13
2022-12-05T22:00:29.551Z,81.93
2022-12-05T22:03:01.643Z,81.48
2022-12-05T22:05:34.373Z,81.77
2022-12-05T22:08:06.974Z,81.60
2022-12-05T22:10:39.171Z,81.81
2022-12-05T22:13:11.263Z,81.73
2022-12-05T22:15:43.291Z,81.93
2022-12-05T22:18:15.271Z,82.30
2022-12-05T22:20:47.231Z,82.10
2022-12-05T22:23:19.475Z,82.72
2022-12-05T22:25:59.579Z,82.22
2022-12-05T22:28:32.462Z,82.58
2022-12-05T22:31:06.247Z,82.67
2022-12-05T22:33:39.212Z,82.31
2022-12-05T22:36:13.935Z,81.95
2022-12-05T22:38:48.154Z,82.01
2022-12-05T22:41:21.290Z,82.14
2022-12-05T22:43:57.788Z,82.31
2022-12-05T22:46:30.535Z,82.03
2022-12-05T22:49:04.122Z,82.13
2022-12-05T22:51:36.337Z,81.97
2022-12-05T22:54:08.791Z,82.46
2022-12-05T22:56:41.136Z,82.79
2022-12-05T22:59:14.927Z,82.76
2022-12-05T23:01:47.468Z,82.76
2022-12-05T23:04:20.349Z,82.53
2022-12-05T23:06:52.522Z,82.51
2022-12-05T23:09:25.231Z,82.57
2022-12-05T23:11:57.144Z,82.07
2022-12-05T23:14:29.079Z,82.02
2022-12-05T23:17:01.094Z,82.14
2022-12-05T23:19:32.979Z,82.30
2022-12-05T23:22:05.250Z,82.20
2022-12-05T23:24:37.341Z,82.16
2022-12-05T23:27:09.330Z,82.25
2022-12-05T23:29:42.705Z,82.33
2022-12-05T23:32:15.147Z,82.55
2022-12-05T23:34:47.271Z,82.58
2022-12-05T23:37:19.286Z,82.71
2022-12-05T23:39:51.297Z,82.84
2022-12-05T23:42:23.235Z,82.68
2022-12-05T23:44:55.484Z,82.59
2022-12-05T23:47:27.622Z,82.22
2022-12-05T23:49:59.772Z,82.28
2022-12-05T23:52:31.832Z,82.17
2022-12-05T23:55:03.901Z,82.52
2022-12-05T23:57:36.156Z,82.40
